sensor_id;sensor_type;location;lat;lon;timestamp;pressure;altitude;pressure_sealevel;temperature;humidity
52319;BME280;38258;51.148;14.068;2023-12-28T00:02:00;98181.09;;;3.52;100.00
52319;BME280;38258;51.148;14.068;2023-12-28T00:04:26;98167.25;;;3.54;100.00
52319;BME280;38258;51.148;14.068;2023-12-28T00:06:54;98161.25;;;3.45;100.00
52319;BME280;38258;51.148;14.068;2023-12-28T00:09:21;98148.38;;;3.32;100.00
52319;BME280;38258;51.148;14.068;2023-12-28T00:11:48;98153.50;;;3.48;100.00
52319;BME280;38258;51.148;14.068;2023-12-28T00:14:14;98149.19;;;3.53;100.00
52319;BME280;38258;51.148;14.068;2023-12-28T00:16:41;98153.47;;;3.51;100.00
52319;BME280;38258;51.148;14.068;2023-12-28T00:19:07;98155.22;;;3.50;100.00
52319;BME280;38258;51.148;14.068;2023-12-28T00:21:34;98154.34;;;3.50;100.00
52319;BME280;38258;51.148;14.068;2023-12-28T00:24:02;98152.59;;;3.58;100.00
52319;BME280;38258;51.148;14.068;2023-12-28T00:26:29;98149.13;;;3.58;100.00
52319;BME280;38258;51.148;14.068;2023-12-28T00:29:03;98150.88;;;3.57;100.00
52319;BME280;38258;51.148;14.068;2023-12-28T00:31:29;98131.06;;;3.54;100.00
52319;BME280;38258;51.148;14.068;2023-12-28T00:33:56;98127.59;;;3.60;100.00
52319;BME280;38258;51.148;14.068;2023-12-28T00:36:22;98118.97;;;3.57;100.00
52319;BME280;38258;51.148;14.068;2023-12-28T00:38:49;98118.97;;;3.58;100.00
52319;BME280;38258;51.148;14.068;2023-12-28T00:41:17;98113.75;;;3.69;100.00
52319;BME280;38258;51.148;14.068;2023-12-28T00:43:44;98112.09;;;3.56;100.00
52319;BME280;38258;51.148;14.068;2023-12-28T00:46:10;98114.66;;;3.60;100.00
52319;BME280;38258;51.148;14.068;2023-12-28T00:48:37;98099.91;;;3.79;100.00
52319;BME280;38258;51.148;14.068;2023-12-28T00:51:04;98097.38;;;3.68;100.00
52319;BME280;38258;51.148;14.068;2023-12-28T00:53:30;98096.50;;;3.68;100.00
52319;BME280;38258;51.148;14.068;2023-12-28T00:55:57;98101.72;;;3.60;100.00
52319;BME280;38258;51.148;14.068;2023-12-28T00:58:25;98094.88;;;3.53;100.00
52319;BME280;38258;51.148;14.068;2023-12-28T01:00:52;98051.88;;;3.30;100.00
52319;BME280;38258;51.148;14.068;2023-12-28T01:03:21;98065.59;;;3.45;100.00
52319;BME280;38258;51.148;14.068;2023-12-28T01:05:48;98070.78;;;3.46;100.00
52319;BME280;38258;51.148;14.068;2023-12-28T01:08:17;98070.72;;;3.54;100.00
52319;BME280;38258;51.148;14.068;2023-12-28T01:10:44;98066.41;;;3.50;100.00
52319;BME280;38258;51.148;14.068;2023-12-28T01:13:10;98055.22;;;3.48;100.00
52319;BME280;38258;51.148;14.068;2023-12-28T01:15:41;98075.91;;;3.48;100.00
52319;BME280;38258;51.148;14.068;2023-12-28T01:18:08;98062.97;;;3.51;100.00
52319;BME280;38258;51.148;14.068;2023-12-28T01:20:37;98062.06;;;3.61;100.00
52319;BME280;38258;51.148;14.068;2023-12-28T01:23:03;98069.06;;;3.45;100.00
52319;BME280;38258;51.148;14.068;2023-12-28T01:25:31;98065.56;;;3.54;100.00
52319;BME280;38258;51.148;14.068;2023-12-28T01:27:57;98072.41;;;3.57;100.00
52319;BME280;38258;51.148;14.068;2023-12-28T01:30:24;98064.66;;;3.57;100.00
52319;BME280;38258;51.148;14.068;2023-12-28T01:32:53;98061.16;;;3.65;100.00
52319;BME280;38258;51.148;14.068;2023-12-28T01:35:19;98034.53;;;3.52;100.00
52319;BME280;38258;51.148;14.068;2023-12-28T01:37:46;98056.91;;;3.57;100.00
52319;BME280;38258;51.148;14.068;2023-12-28T01:40:15;98048.19;;;3.70;100.00
52319;BME280;38258;51.148;14.068;2023-12-28T01:42:41;98057.69;;;3.73;100.00
52319;BME280;38258;51.148;14.068;2023-12-28T01:45:08;98032.72;;;3.62;100.00
52319;BME280;38258;51.148;14.068;2023-12-28T01:47:35;98041.31;;;3.69;100.00
52319;BME280;38258;51.148;14.068;2023-12-28T01:50:06;98044.75;;;3.71;100.00
52319;BME280;38258;51.148;14.068;2023-12-28T01:52:33;98044.69;;;3.82;100.00
52319;BME280;38258;51.148;14.068;2023-12-28T01:55:02;98023.22;;;3.69;100.00
52319;BME280;38258;51.148;14.068;2023-12-28T01:57:30;98043.09;;;3.59;100.00
52319;BME280;38258;51.148;14.068;2023-12-28T01:59:57;98049.03;;;3.78;100.00
52319;BME280;38258;51.148;14.068;2023-12-28T02:02:24;98052.47;;;3.80;100.00
52319;BME280;38258;51.148;14.068;2023-12-28T02:04:50;98023.28;;;3.58;100.00
52319;BME280;38258;51.148;14.068;2023-12-28T02:07:20;98009.53;;;3.53;100.00
52319;BME280;38258;51.148;14.068;2023-12-28T02:09:50;98041.28;;;3.72;100.00
52319;BME280;38258;51.148;14.068;2023-12-28T02:12:16;98019.78;;;3.68;100.00
52319;BME280;38258;51.148;14.068;2023-12-28T02:14:43;98011.16;;;3.70;100.00
52319;BME280;38258;51.148;14.068;2023-12-28T02:17:16;98041.31;;;3.69;100.00
52319;BME280;38258;51.148;14.068;2023-12-28T02:19:50;98021.44;;;3.76;100.00
52319;BME280;38258;51.148;14.068;2023-12-28T02:22:16;98004.22;;;3.72;100.00
52319;BME280;38258;51.148;14.068;2023-12-28T02:25:11;97996.38;;;3.82;100.00
52319;BME280;38258;51.148;14.068;2023-12-28T02:27:39;97999.91;;;3.72;100.00
52319;BME280;38258;51.148;14.068;2023-12-28T02:30:08;97980.94;;;3.76;100.00
52319;BME280;38258;51.148;14.068;2023-12-28T02:32:52;98020.53;;;3.81;100.00
52319;BME280;38258;51.148;14.068;2023-12-28T02:35:23;98004.16;;;3.82;100.00
52319;BME280;38258;51.148;14.068;2023-12-28T02:37:52;98014.50;;;3.82;100.00
52319;BME280;38258;51.148;14.068;2023-12-28T02:40:23;97999.94;;;3.71;100.00
52319;BME280;38258;51.148;14.068;2023-12-28T02:42:51;98017.13;;;3.78;100.00
52319;BME280;38258;51.148;14.068;2023-12-28T02:45:18;98030.88;;;3.85;100.00
52319;BME280;38258;51.148;14.068;2023-12-28T02:47:45;98045.56;;;3.81;100.00
52319;BME280;38258;51.148;14.068;2023-12-28T02:50:12;98027.41;;;3.86;100.00
52319;BME280;38258;51.148;14.068;2023-12-28T02:52:39;98018.97;;;3.56;100.00
52319;BME280;38258;51.148;14.068;2023-12-28T02:55:06;98029.31;;;3.62;100.00
52319;BME280;38258;51.148;14.068;2023-12-28T02:57:34;98045.63;;;3.70;100.00
52319;BME280;38258;51.148;14.068;2023-12-28T03:00:05;98039.75;;;3.45;100.00
52319;BME280;38258;51.148;14.068;2023-12-28T03:02:34;98031.03;;;3.63;100.00
52319;BME280;38258;51.148;14.068;2023-12-28T03:05:01;98040.50;;;3.62;100.00
52319;BME280;38258;51.148;14.068;2023-12-28T03:07:27;98040.59;;;3.47;100.00
52319;BME280;38258;51.148;14.068;2023-12-28T03:09:54;98039.81;;;3.31;100.00
52319;BME280;38258;51.148;14.068;2023-12-28T03:12:21;98040.53;;;3.54;100.00
52319;BME280;38258;51.148;14.068;2023-12-28T03:14:50;98043.97;;;3.58;100.00
52319;BME280;38258;51.148;14.068;2023-12-28T03:17:16;98035.34;;;3.59;100.00
52319;BME280;38258;51.148;14.068;2023-12-28T03:19:47;98026.69;;;3.66;100.00
52319;BME280;38258;51.148;14.068;2023-12-28T03:22:14;98051.63;;;3.72;100.00
52319;BME280;38258;51.148;14.068;2023-12-28T03:24:40;98046.69;;;3.35;100.00
52319;BME280;38258;51.148;14.068;2023-12-28T03:27:07;98068.16;;;3.43;100.00
52319;BME280;38258;51.148;14.068;2023-12-28T03:29:34;98067.38;;;3.32;100.00
52319;BME280;38258;51.148;14.068;2023-12-28T03:32:02;98076.03;;;3.20;100.00
52319;BME280;38258;51.148;14.068;2023-12-28T03:34:36;98060.47;;;3.32;100.00
52319;BME280;38258;51.148;14.068;2023-12-28T03:37:03;98070.81;;;3.38;100.00
52319;BME280;38258;51.148;14.068;2023-12-28T03:39:30;98056.28;;;3.09;100.00
52319;BME280;38258;51.148;14.068;2023-12-28T03:41:57;98076.03;;;3.23;100.00
52319;BME280;38258;51.148;14.068;2023-12-28T03:44:23;98062.25;;;3.21;100.00
52319;BME280;38258;51.148;14.068;2023-12-28T03:46:50;98050.22;;;3.07;100.00
52319;BME280;38258;51.148;14.068;2023-12-28T03:49:19;98053.63;;;3.23;100.00
52319;BME280;38258;51.148;14.068;2023-12-28T03:51:49;98035.59;;;3.09;100.00
52319;BME280;38258;51.148;14.068;2023-12-28T03:54:17;98036.47;;;2.97;100.00
52319;BME280;38258;51.148;14.068;2023-12-28T03:56:48;98045.94;;;3.08;100.00
52319;BME280;38258;51.148;14.068;2023-12-28T03:59:16;98052.66;;;3.46;100.00
52319;BME280;38258;51.148;14.068;2023-12-28T04:01:43;98040.38;;;3.84;100.00
52319;BME280;38258;51.148;14.068;2023-12-28T04:04:09;98035.28;;;3.70;100.00
52319;BME280;38258;51.148;14.068;2023-12-28T04:06:37;98037.91;;;3.64;100.00
52319;BME280;38258;51.148;14.068;2023-12-28T04:09:04;98036.22;;;3.57;100.00
52319;BME280;38258;51.148;14.068;2023-12-28T04:11:31;98063.66;;;3.82;100.00
52319;BME280;38258;51.148;14.068;2023-12-28T04:14:00;98056.91;;;3.58;100.00
52319;BME280;38258;51.148;14.068;2023-12-28T04:16:29;98041.22;;;3.85;100.00
52319;BME280;38258;51.148;14.068;2023-12-28T04:18:56;98033.44;;;3.85;100.00
52319;BME280;38258;51.148;14.068;2023-12-28T04:21:25;98001.63;;;3.75;100.00
52319;BME280;38258;51.148;14.068;2023-12-28T04:23:56;98037.63;;;4.01;100.00
52319;BME280;38258;51.148;14.068;2023-12-28T04:26:23;98046.38;;;3.86;100.00
52319;BME280;38258;51.148;14.068;2023-12-28T04:28:49;98045.31;;;4.14;100.00
52319;BME280;38258;51.148;14.068;2023-12-28T04:31:16;98067.75;;;4.16;100.00
52319;BME280;38258;51.148;14.068;2023-12-28T04:33:44;98040.19;;;4.06;100.00
52319;BME280;38258;51.148;14.068;2023-12-28T04:36:10;98040.97;;;4.19;100.00
52319;BME280;38258;51.148;14.068;2023-12-28T04:38:37;98057.19;;;4.39;100.00
52319;BME280;38258;51.148;14.068;2023-12-28T04:41:06;98047.66;;;4.43;100.00
52319;BME280;38258;51.148;14.068;2023-12-28T04:43:33;98056.31;;;4.42;100.00
52319;BME280;38258;51.148;14.068;2023-12-28T04:46:02;98016.63;;;4.38;100.00
52319;BME280;38258;51.148;14.068;2023-12-28T04:48:29;98027.94;;;4.30;100.00
52319;BME280;38258;51.148;14.068;2023-12-28T04:50:56;98033.03;;;4.39;100.00
52319;BME280;38258;51.148;14.068;2023-12-28T04:53:23;98047.66;;;4.42;100.00
52319;BME280;38258;51.148;14.068;2023-12-28T04:55:50;98041.72;;;4.30;100.00
52319;BME280;38258;51.148;14.068;2023-12-28T04:58:18;98039.97;;;4.34;100.00
52319;BME280;38258;51.148;14.068;2023-12-28T05:00:48;98032.25;;;4.31;100.00
52319;BME280;38258;51.148;14.068;2023-12-28T05:03:18;98033.94;;;4.30;100.00
52319;BME280;38258;51.148;14.068;2023-12-28T05:05:45;98021.06;;;4.26;100.00
52319;BME280;38258;51.148;14.068;2023-12-28T05:08:11;98050.31;;;4.34;100.00
52319;BME280;38258;51.148;14.068;2023-12-28T05:10:38;98059.75;;;4.44;100.00
52319;BME280;38258;51.148;14.068;2023-12-28T05:13:04;98046.81;;;4.41;100.00
52319;BME280;38258;51.148;14.068;2023-12-28T05:15:36;98053.63;;;4.51;100.00
52319;BME280;38258;51.148;14.068;2023-12-28T05:18:03;98067.25;;;4.74;100.00
52319;BME280;38258;51.148;14.068;2023-12-28T05:20:29;98038.75;;;4.71;100.00
52319;BME280;38258;51.148;14.068;2023-12-28T05:22:56;98034.53;;;4.62;100.00
52319;BME280;38258;51.148;14.068;2023-12-28T05:25:23;98041.47;;;4.61;100.00
52319;BME280;38258;51.148;14.068;2023-12-28T05:27:49;98069.84;;;4.74;100.00
52319;BME280;38258;51.148;14.068;2023-12-28T05:30:18;98053.63;;;4.53;100.00
52319;BME280;38258;51.148;14.068;2023-12-28T05:32:46;98077.78;;;4.55;100.00
52319;BME280;38258;51.148;14.068;2023-12-28T05:35:13;98068.28;;;4.56;100.00
52319;BME280;38258;51.148;14.068;2023-12-28T05:37:40;98062.16;;;4.64;100.00
52319;BME280;38258;51.148;14.068;2023-12-28T05:40:07;98070.75;;;4.65;100.00
52319;BME280;38258;51.148;14.068;2023-12-28T05:42:34;98057.09;;;4.50;100.00
52319;BME280;38258;51.148;14.068;2023-12-28T05:45:01;98059.72;;;4.49;100.00
52319;BME280;38258;51.148;14.068;2023-12-28T05:47:28;98077.69;;;4.63;100.00
52319;BME280;38258;51.148;14.068;2023-12-28T05:49:56;98047.53;;;4.60;100.00
52319;BME280;38258;51.148;14.068;2023-12-28T05:52:23;98075.91;;;4.71;100.00
52319;BME280;38258;51.148;14.068;2023-12-28T05:54:49;98074.06;;;4.79;100.00
52319;BME280;38258;51.148;14.068;2023-12-28T05:57:16;98096.53;;;4.82;100.00
52319;BME280;38258;51.148;14.068;2023-12-28T05:59:43;98065.44;;;4.80;100.00
52319;BME280;38258;51.148;14.068;2023-12-28T06:02:09;98091.25;;;4.91;100.00
52319;BME280;38258;51.148;14.068;2023-12-28T06:04:36;98100.59;;;5.06;100.00
52319;BME280;38258;51.148;14.068;2023-12-28T06:07:04;98099.56;;;5.20;100.00
52319;BME280;38258;51.148;14.068;2023-12-28T06:09:31;98089.28;;;5.12;100.00
52319;BME280;38258;51.148;14.068;2023-12-28T06:11:58;98094.38;;;5.21;100.00
52319;BME280;38258;51.148;14.068;2023-12-28T06:14:24;98095.22;;;5.25;100.00
52319;BME280;38258;51.148;14.068;2023-12-28T06:16:51;98093.31;;;5.38;100.00
52319;BME280;38258;51.148;14.068;2023-12-28T06:19:17;98107.03;;;5.49;100.00
52319;BME280;38258;51.148;14.068;2023-12-28T06:21:48;98104.44;;;5.48;100.00
52319;BME280;38258;51.148;14.068;2023-12-28T06:24:16;98114.03;;;5.43;100.00
52319;BME280;38258;51.148;14.068;2023-12-28T06:26:43;98108.19;;;5.22;100.00
52319;BME280;38258;51.148;14.068;2023-12-28T06:29:10;98102.13;;;5.23;100.00
52319;BME280;38258;51.148;14.068;2023-12-28T06:31:37;98108.34;;;5.09;100.00
52319;BME280;38258;51.148;14.068;2023-12-28T06:34:04;98114.38;;;5.12;100.00
52319;BME280;38258;51.148;14.068;2023-12-28T06:36:31;98090.25;;;5.03;100.00
52319;BME280;38258;51.148;14.068;2023-12-28T06:38:58;98093.56;;;5.16;100.00
52319;BME280;38258;51.148;14.068;2023-12-28T06:41:27;98094.28;;;5.31;100.00
52319;BME280;38258;51.148;14.068;2023-12-28T06:43:53;98093.56;;;5.16;100.00
52319;BME280;38258;51.148;14.068;2023-12-28T06:46:20;98131.25;;;5.48;100.00
52319;BME280;38258;51.148;14.068;2023-12-28T06:48:47;98113.00;;;5.55;100.00
52319;BME280;38258;51.148;14.068;2023-12-28T06:51:18;98085.16;;;5.69;100.00
52319;BME280;38258;51.148;14.068;2023-12-28T06:53:45;98109.00;;;5.96;100.00
52319;BME280;38258;51.148;14.068;2023-12-28T06:56:12;98116.47;;;6.21;100.00
52319;BME280;38258;51.148;14.068;2023-12-28T06:58:40;98103.94;;;6.46;100.00
52319;BME280;38258;51.148;14.068;2023-12-28T07:01:07;98126.53;;;6.43;100.00
52319;BME280;38258;51.148;14.068;2023-12-28T07:03:34;98121.94;;;6.60;100.00
52319;BME280;38258;51.148;14.068;2023-12-28T07:06:00;98125.78;;;6.88;100.00
52319;BME280;38258;51.148;14.068;2023-12-28T07:08:28;98117.03;;;6.92;100.00
52319;BME280;38258;51.148;14.068;2023-12-28T07:10:55;98116.28;;;6.87;100.00
52319;BME280;38258;51.148;14.068;2023-12-28T07:13:22;98122.50;;;6.76;100.00
52319;BME280;38258;51.148;14.068;2023-12-28T07:15:50;98131.38;;;6.64;100.00
52319;BME280;38258;51.148;14.068;2023-12-28T07:18:17;98142.41;;;6.77;100.00
52319;BME280;38258;51.148;14.068;2023-12-28T07:20:43;98146.66;;;6.85;100.00
52319;BME280;38258;51.148;14.068;2023-12-28T07:23:10;98143.69;;;7.05;100.00
52319;BME280;38258;51.148;14.068;2023-12-28T07:25:37;98134.34;;;6.93;100.00
52319;BME280;38258;51.148;14.068;2023-12-28T07:28:04;98135.03;;;7.04;100.00
52319;BME280;38258;51.148;14.068;2023-12-28T07:30:31;98149.19;;;6.88;100.00
52319;BME280;38258;51.148;14.068;2023-12-28T07:32:59;98155.00;;;7.04;100.00
52319;BME280;38258;51.148;14.068;2023-12-28T07:35:25;98148.84;;;7.06;100.00
52319;BME280;38258;51.148;14.068;2023-12-28T07:37:52;98141.06;;;7.06;100.00
52319;BME280;38258;51.148;14.068;2023-12-28T07:40:19;98150.41;;;7.18;100.00
52319;BME280;38258;51.148;14.068;2023-12-28T07:42:46;98151.00;;;7.31;100.00
52319;BME280;38258;51.148;14.068;2023-12-28T07:45:13;98139.47;;;7.45;100.00
52319;BME280;38258;51.148;14.068;2023-12-28T07:47:39;98155.09;;;7.45;100.00
52319;BME280;38258;51.148;14.068;2023-12-28T07:50:08;98173.97;;;7.55;100.00
52319;BME280;38258;51.148;14.068;2023-12-28T07:52:36;98167.06;;;7.54;100.00
52319;BME280;38258;51.148;14.068;2023-12-28T07:55:03;98157.53;;;7.53;100.00
52319;BME280;38258;51.148;14.068;2023-12-28T07:57:30;98135.09;;;7.47;100.00
52319;BME280;38258;51.148;14.068;2023-12-28T07:59:56;98131.66;;;7.45;100.00
52319;BME280;38258;51.148;14.068;2023-12-28T08:02:23;98148.00;;;7.53;100.00
52319;BME280;38258;51.148;14.068;2023-12-28T08:04:59;98150.72;;;7.45;100.00
52319;BME280;38258;51.148;14.068;2023-12-28T08:07:35;98149.81;;;7.48;100.00
52319;BME280;38258;51.148;14.068;2023-12-28T08:10:01;98145.44;;;7.50;100.00
52319;BME280;38258;51.148;14.068;2023-12-28T08:12:29;98142.59;;;7.62;100.00
52319;BME280;38258;51.148;14.068;2023-12-28T08:14:56;98144.97;;;7.73;100.00
52319;BME280;38258;51.148;14.068;2023-12-28T08:17:22;98155.44;;;7.72;100.00
52319;BME280;38258;51.148;14.068;2023-12-28T08:19:49;98154.53;;;7.73;100.00
52319;BME280;38258;51.148;14.068;2023-12-28T08:22:16;98149.19;;;7.79;100.00
52319;BME280;38258;51.148;14.068;2023-12-28T08:24:45;98157.66;;;7.89;100.00
52319;BME280;38258;51.148;14.068;2023-12-28T08:27:12;98155.06;;;7.89;100.00
52319;BME280;38258;51.148;14.068;2023-12-28T08:29:39;98161.13;;;7.89;100.00
52319;BME280;38258;51.148;14.068;2023-12-28T08:32:07;98171.38;;;7.99;100.00
52319;BME280;38258;51.148;14.068;2023-12-28T08:34:34;98168.75;;;7.99;100.00
52319;BME280;38258;51.148;14.068;2023-12-28T08:37:00;98168.75;;;7.99;100.00
52319;BME280;38258;51.148;14.068;2023-12-28T08:39:27;98164.38;;;8.01;100.00
52319;BME280;38258;51.148;14.068;2023-12-28T08:41:55;98166.19;;;7.96;100.00
52319;BME280;38258;51.148;14.068;2023-12-28T08:44:22;98184.47;;;7.94;100.00
52319;BME280;38258;51.148;14.068;2023-12-28T08:46:48;98169.03;;;7.85;100.00
52319;BME280;38258;51.148;14.068;2023-12-28T08:49:15;98175.97;;;7.86;100.00
52319;BME280;38258;51.148;14.068;2023-12-28T08:51:42;98181.41;;;7.75;100.00
52319;BME280;38258;51.148;14.068;2023-12-28T08:54:08;98197.09;;;7.72;100.00
52319;BME280;38258;51.148;14.068;2023-12-28T08:56:35;98195.22;;;7.78;100.00
52319;BME280;38258;51.148;14.068;2023-12-28T08:59:03;98196.06;;;7.79;100.00
52319;BME280;38258;51.148;14.068;2023-12-28T09:01:30;98194.41;;;7.76;100.00
52319;BME280;38258;51.148;14.068;2023-12-28T09:03:56;98184.97;;;7.69;100.00
52319;BME280;38258;51.148;14.068;2023-12-28T09:06:22;98186.50;;;7.80;100.00
52319;BME280;38258;51.148;14.068;2023-12-28T09:08:50;98190.69;;;7.88;100.00
52319;BME280;38258;51.148;14.068;2023-12-28T09:11:17;98189.06;;;7.83;100.00
52319;BME280;38258;51.148;14.068;2023-12-28T09:13:44;98195.78;;;7.93;100.00
52319;BME280;38258;51.148;14.068;2023-12-28T09:16:13;98211.91;;;8.12;100.00
52319;BME280;38258;51.148;14.068;2023-12-28T09:18:40;98204.94;;;8.13;100.00
52319;BME280;38258;51.148;14.068;2023-12-28T09:21:08;98199.81;;;8.08;100.00
52319;BME280;38258;51.148;14.068;2023-12-28T09:23:35;98214.34;;;8.20;100.00
52319;BME280;38258;51.148;14.068;2023-12-28T09:26:03;98214.19;;;8.26;100.00
52319;BME280;38258;51.148;14.068;2023-12-28T09:28:30;98218.59;;;8.23;100.00
52319;BME280;38258;51.148;14.068;2023-12-28T09:30:57;98215.16;;;8.22;100.00
52319;BME280;38258;51.148;14.068;2023-12-28T09:33:25;98212.56;;;8.22;100.00
52319;BME280;38258;51.148;14.068;2023-12-28T09:35:51;98205.22;;;8.38;100.00
52319;BME280;38258;51.148;14.068;2023-12-28T09:38:19;98213.19;;;8.33;100.00
52319;BME280;38258;51.148;14.068;2023-12-28T09:40:47;98214.19;;;8.26;100.00
52319;BME280;38258;51.148;14.068;2023-12-28T09:43:21;98215.06;;;8.27;100.00
52319;BME280;38258;51.148;14.068;2023-12-28T09:45:48;98210.84;;;8.21;100.00
52319;BME280;38258;51.148;14.068;2023-12-28T09:48:15;98211.59;;;8.26;100.00
52319;BME280;38258;51.148;14.068;2023-12-28T09:50:44;98216.06;;;8.19;100.00
52319;BME280;38258;51.148;14.068;2023-12-28T09:53:12;98205.06;;;8.06;100.00
52319;BME280;38258;51.148;14.068;2023-12-28T09:55:38;98209.72;;;7.92;100.00
52319;BME280;38258;51.148;14.068;2023-12-28T09:58:05;98207.28;;;7.83;100.00
52319;BME280;38258;51.148;14.068;2023-12-28T10:00:32;98193.91;;;7.56;100.00
52319;BME280;38258;51.148;14.068;2023-12-28T10:02:59;98206.47;;;7.33;100.00
52319;BME280;38258;51.148;14.068;2023-12-28T10:05:26;98203.66;;;7.46;100.00
52319;BME280;38258;51.148;14.068;2023-12-28T10:07:55;98194.28;;;7.37;100.00
52319;BME280;38258;51.148;14.068;2023-12-28T10:10:22;98190.84;;;7.33;100.00
52319;BME280;38258;51.148;14.068;2023-12-28T10:12:49;98188.03;;;7.46;100.00
52319;BME280;38258;51.148;14.068;2023-12-28T10:15:16;98193.09;;;7.52;100.00
52319;BME280;38258;51.148;14.068;2023-12-28T10:17:42;98188.78;;;7.51;100.00
52319;BME280;38258;51.148;14.068;2023-12-28T10:20:09;98188.78;;;7.51;100.00
52319;BME280;38258;51.148;14.068;2023-12-28T10:22:37;98196.50;;;7.57;100.00
52319;BME280;38258;51.148;14.068;2023-12-28T10:25:05;98196.44;;;7.59;100.00
52319;BME280;38258;51.148;14.068;2023-12-28T10:27:32;98196.50;;;7.57;100.00
52319;BME280;38258;51.148;14.068;2023-12-28T10:30:04;98200.81;;;7.58;100.00
52319;BME280;38258;51.148;14.068;2023-12-28T10:32:31;98201.47;;;7.70;100.00
52319;BME280;38258;51.148;14.068;2023-12-28T10:34:57;98187.25;;;7.86;100.00
52319;BME280;38258;51.148;14.068;2023-12-28T10:37:26;98183.00;;;7.82;100.00
52319;BME280;38258;51.148;14.068;2023-12-28T10:39:54;98188.88;;;7.90;100.00
52319;BME280;38258;51.148;14.068;2023-12-28T10:42:28;98191.63;;;7.84;100.00
52319;BME280;38258;51.148;14.068;2023-12-28T10:45:02;98193.38;;;7.84;100.00
52319;BME280;38258;51.148;14.068;2023-12-28T10:47:31;98196.78;;;7.86;100.00
52319;BME280;38258;51.148;14.068;2023-12-28T10:50:01;98203.75;;;7.85;100.00
52319;BME280;38258;51.148;14.068;2023-12-28T10:52:30;98208.00;;;7.89;100.00
52319;BME280;38258;51.148;14.068;2023-12-28T10:55:08;98205.53;;;7.83;100.00
52319;BME280;38258;51.148;14.068;2023-12-28T10:57:40;98198.56;;;7.85;100.00
52319;BME280;38258;51.148;14.068;2023-12-28T11:00:10;98196.13;;;7.76;100.00
52319;BME280;38258;51.148;14.068;2023-12-28T11:02:44;98194.34;;;7.78;100.00
52319;BME280;38258;51.148;14.068;2023-12-28T11:05:12;98191.22;;;7.62;100.00
52319;BME280;38258;51.148;14.068;2023-12-28T11:07:40;98186.03;;;7.59;100.00
52319;BME280;38258;51.148;14.068;2023-12-28T11:10:08;98180.00;;;7.58;100.00
52319;BME280;38258;51.148;14.068;2023-12-28T11:12:38;98186.09;;;7.57;100.00
52319;BME280;38258;51.148;14.068;2023-12-28T11:15:05;98184.31;;;7.58;100.00
52319;BME280;38258;51.148;14.068;2023-12-28T11:17:33;98181.47;;;7.72;100.00
52319;BME280;38258;51.148;14.068;2023-12-28T11:20:02;98178.97;;;7.66;100.00
52319;BME280;38258;51.148;14.068;2023-12-28T11:22:30;98181.41;;;7.75;100.00
52319;BME280;38258;51.148;14.068;2023-12-28T11:24:57;98176.06;;;7.81;100.00
52319;BME280;38258;51.148;14.068;2023-12-28T11:27:24;98181.09;;;7.89;100.00
52319;BME280;38258;51.148;14.068;2023-12-28T11:29:53;98176.75;;;7.91;100.00
52319;BME280;38258;51.148;14.068;2023-12-28T11:32:19;98181.78;;;7.99;100.00
52319;BME280;38258;51.148;14.068;2023-12-28T11:34:56;98171.03;;;8.14;100.00
52319;BME280;38258;51.148;14.068;2023-12-28T11:37:23;98170.88;;;8.20;100.00
52319;BME280;38258;51.148;14.068;2023-12-28T11:39:52;98168.81;;;8.35;100.00
52319;BME280;38258;51.148;14.068;2023-12-28T11:42:20;98172.16;;;8.42;100.00
52319;BME280;38258;51.148;14.068;2023-12-28T11:44:54;98174.03;;;8.35;100.00
52319;BME280;38258;51.148;14.068;2023-12-28T11:47:22;98173.03;;;8.41;100.00
52319;BME280;38258;51.148;14.068;2023-12-28T11:49:50;98187.97;;;8.34;100.00
52319;BME280;38258;51.148;14.068;2023-12-28T11:52:25;98184.34;;;8.41;100.00
52319;BME280;38258;51.148;14.068;2023-12-28T11:54:52;98178.34;;;8.36;100.00
52319;BME280;38258;51.148;14.068;2023-12-28T11:57:19;98180.59;;;8.55;100.00
52319;BME280;38258;51.148;14.068;2023-12-28T11:59:48;98177.25;;;8.46;100.00
52319;BME280;38258;51.148;14.068;2023-12-28T12:02:16;98185.00;;;8.51;100.00
52319;BME280;38258;51.148;14.068;2023-12-28T12:04:43;98174.69;;;8.45;100.00
52319;BME280;38258;51.148;14.068;2023-12-28T12:07:10;98168.50;;;8.51;100.00
52319;BME280;38258;51.148;14.068;2023-12-28T12:09:37;98166.59;;;8.57;100.00
52319;BME280;38258;51.148;14.068;2023-12-28T12:12:04;98180.53;;;8.56;100.00
52319;BME280;38258;51.148;14.068;2023-12-28T12:14:31;98176.44;;;8.44;100.00
52319;BME280;38258;51.148;14.068;2023-12-28T12:16:58;98172.16;;;8.42;100.00
52319;BME280;38258;51.148;14.068;2023-12-28T12:19:26;98174.66;;;8.46;100.00
52319;BME280;38258;51.148;14.068;2023-12-28T12:21:53;98178.91;;;8.52;100.00
52319;BME280;38258;51.148;14.068;2023-12-28T12:24:20;98178.50;;;8.69;100.00
52319;BME280;38258;51.148;14.068;2023-12-28T12:26:47;98178.56;;;8.66;100.00
52319;BME280;38258;51.148;14.068;2023-12-28T12:29:14;98167.84;;;8.79;100.00
52319;BME280;38258;51.148;14.068;2023-12-28T12:31:41;98174.94;;;8.72;100.00
52319;BME280;38258;51.148;14.068;2023-12-28T12:34:09;98172.59;;;8.62;100.00
52319;BME280;38258;51.148;14.068;2023-12-28T12:36:37;98169.28;;;8.56;100.00
52319;BME280;38258;51.148;14.068;2023-12-28T12:39:04;98178.97;;;8.47;100.00
52319;BME280;38258;51.148;14.068;2023-12-28T12:41:31;98169.19;;;8.59;100.00
52319;BME280;38258;51.148;14.068;2023-12-28T12:43:58;98167.59;;;8.53;100.00
52319;BME280;38258;51.148;14.068;2023-12-28T12:46:25;98166.75;;;8.49;100.00
52319;BME280;38258;51.148;14.068;2023-12-28T12:48:55;98160.97;;;8.37;100.00
52319;BME280;38258;51.148;14.068;2023-12-28T12:51:22;98158.81;;;8.16;100.00
52319;BME280;38258;51.148;14.068;2023-12-28T12:53:50;98163.16;;;8.16;100.00